VKG517 LTAI-ESSA
Flight info
| Callsign | VKG517 |
|---|---|
| Flight time | N/A |
| Altitude | 34000 |
| Route | OSVEL UL619 MAKOL L619 ARGES DCT MOBRA DCT KARIL DCT KENIN DCT KEFIR DCT SOMOX DCT BOKSU DCT GOJOM DCT MIRMA N616 NEKET DCT TOMBU N616 XILAN |
| Aircraft | A321/M-SDE3FGHIRWY/LB1 |
Departure
| Time | 2026-05-04 07:49 |
|---|---|
| Airport | Antalya International Airport (LTAI) |
Arrival
| Time | N/A |
|---|---|
| Airport | Stockholm-Arlanda Airport (ESSA) |
| Time | Latitude | Longitude | Altitude | Speed | Heading |
|---|---|---|---|---|---|
| 2026-05-04 07:31 | 36.89633 | 30.80486 | 202 ft | 0 kts | 276° |
| 2026-05-04 07:39 | 36.89632 | 30.80487 | 192 ft | 1 kts | 276° |
| 2026-05-04 07:39 | 36.89630 | 30.80518 | 204 ft | 4 kts | 267° |
| 2026-05-04 07:40 | 36.89633 | 30.80551 | 202 ft | 4 kts | 256° |
| 2026-05-04 07:40 | 36.89639 | 30.80575 | 199 ft | 1 kts | 253° |
| 2026-05-04 07:40 | 36.89640 | 30.80579 | 198 ft | 0 kts | 253° |
| 2026-05-04 07:42 | 36.89638 | 30.80574 | 202 ft | 3 kts | 247° |
| 2026-05-04 07:42 | 36.89592 | 30.80551 | 192 ft | 10 kts | 176° |
| 2026-05-04 07:42 | 36.89562 | 30.80612 | 197 ft | 8 kts | 94° |
| 2026-05-04 07:43 | 36.89537 | 30.80673 | 193 ft | 9 kts | 150° |
| 2026-05-04 07:43 | 36.89463 | 30.80677 | 198 ft | 12 kts | 186° |
| 2026-05-04 07:43 | 36.89373 | 30.80664 | 192 ft | 14 kts | 186° |
| 2026-05-04 07:43 | 36.89268 | 30.80650 | 196 ft | 16 kts | 186° |
| 2026-05-04 07:44 | 36.89148 | 30.80633 | 197 ft | 19 kts | 186° |
| 2026-05-04 07:44 | 36.89012 | 30.80614 | 202 ft | 20 kts | 186° |
| 2026-05-04 07:44 | 36.88865 | 30.80593 | 200 ft | 21 kts | 186° |
| 2026-05-04 07:44 | 36.88726 | 30.80575 | 193 ft | 20 kts | 186° |
| 2026-05-04 07:45 | 36.88583 | 30.80554 | 198 ft | 22 kts | 187° |
| 2026-05-04 07:45 | 36.88427 | 30.80533 | 192 ft | 23 kts | 185° |
| 2026-05-04 07:45 | 36.88275 | 30.80514 | 200 ft | 21 kts | 186° |
| 2026-05-04 07:45 | 36.88139 | 30.80496 | 203 ft | 19 kts | 186° |
| 2026-05-04 07:46 | 36.88053 | 30.80545 | 204 ft | 12 kts | 104° |
| 2026-05-04 07:46 | 36.88076 | 30.80644 | 199 ft | 12 kts | 57° |
| 2026-05-04 07:46 | 36.88123 | 30.80723 | 196 ft | 10 kts | 29° |
| 2026-05-04 07:46 | 36.88169 | 30.80736 | 194 ft | 0 kts | 6° |
| 2026-05-04 07:47 | 36.88190 | 30.80739 | 202 ft | 12 kts | 6° |
| 2026-05-04 07:47 | 36.88525 | 30.80783 | 195 ft | 83 kts | 6° |
| 2026-05-04 07:47 | 36.89297 | 30.80892 | 190 ft | 138 kts | 7° |
| 2026-05-04 07:49 | 36.97123 | 30.84030 | 3077 ft | 205 kts | 15° |
| 2026-05-04 07:49 | 36.98484 | 30.84710 | 3702 ft | 205 kts | 16° |
| 2026-05-04 07:49 | 36.99827 | 30.85377 | 4154 ft | 215 kts | 16° |
| 2026-05-04 07:50 | 37.01318 | 30.86097 | 4326 ft | 238 kts | 16° |
| 2026-05-04 07:50 | 37.02889 | 30.86856 | 4905 ft | 245 kts | 17° |
| 2026-05-04 07:50 | 37.04489 | 30.87633 | 5602 ft | 248 kts | 17° |
| 2026-05-04 07:50 | 37.06107 | 30.88413 | 6316 ft | 250 kts | 16° |
| 2026-05-04 07:51 | 37.07815 | 30.88786 | 6982 ft | 250 kts | 359° |
| 2026-05-04 07:51 | 37.09562 | 30.88482 | 7672 ft | 252 kts | 349° |
| 2026-05-04 07:51 | 37.11286 | 30.88042 | 8303 ft | 256 kts | 349° |
| 2026-05-04 07:51 | 37.13047 | 30.87599 | 8932 ft | 259 kts | 349° |
| 2026-05-04 07:52 | 37.14837 | 30.87150 | 9506 ft | 265 kts | 349° |
| 2026-05-04 07:52 | 37.16652 | 30.86695 | 10104 ft | 267 kts | 349° |
| 2026-05-04 07:52 | 37.18536 | 30.86223 | 10326 ft | 286 kts | 349° |
| 2026-05-04 07:52 | 37.20553 | 30.85718 | 10457 ft | 305 kts | 349° |
| 2026-05-04 07:53 | 37.22700 | 30.85178 | 10587 ft | 323 kts | 349° |
| 2026-05-04 07:54 | 37.38769 | 30.81126 | 14496 ft | 348 kts | 347° |
| 2026-05-04 07:55 | 37.41154 | 30.80529 | 14997 ft | 350 kts | 348° |
| 2026-05-04 07:55 | 37.43592 | 30.80242 | 15511 ft | 354 kts | 358° |
| 2026-05-04 07:55 | 37.46064 | 30.80323 | 16014 ft | 357 kts | 359° |
| 2026-05-04 07:55 | 37.48559 | 30.80406 | 16457 ft | 362 kts | 359° |
| 2026-05-04 07:56 | 37.51086 | 30.80489 | 16950 ft | 364 kts | 0° |
| 2026-05-04 07:56 | 37.53627 | 30.80589 | 17402 ft | 368 kts | 0° |
| 2026-05-04 07:56 | 37.56196 | 30.80705 | 17874 ft | 370 kts | 1° |
| 2026-05-04 07:56 | 37.58815 | 30.80831 | 18283 ft | 374 kts | 1° |
| 2026-05-04 07:57 | 37.61427 | 30.80956 | 18686 ft | 376 kts | 1° |
| 2026-05-04 07:57 | 37.64046 | 30.81080 | 19108 ft | 377 kts | 1° |
| 2026-05-04 07:57 | 37.66678 | 30.81201 | 19526 ft | 379 kts | 1° |
| 2026-05-04 07:57 | 37.69319 | 30.81321 | 19903 ft | 381 kts | 1° |
| 2026-05-04 07:58 | 37.71978 | 30.81442 | 20356 ft | 382 kts | 1° |
| 2026-05-04 07:58 | 37.74630 | 30.81584 | 20793 ft | 382 kts | 4° |
| 2026-05-04 07:58 | 37.77254 | 30.82176 | 21190 ft | 386 kts | 14° |
| 2026-05-04 07:58 | 37.79766 | 30.83402 | 21586 ft | 390 kts | 25° |
| 2026-05-04 07:59 | 37.82084 | 30.85227 | 22000 ft | 394 kts | 32° |
| 2026-05-04 07:59 | 37.84319 | 30.87256 | 22389 ft | 396 kts | 32° |
| 2026-05-04 07:59 | 37.86595 | 30.89321 | 22776 ft | 398 kts | 32° |
| 2026-05-04 07:59 | 37.88854 | 30.91367 | 23196 ft | 400 kts | 32° |
| 2026-05-04 08:00 | 37.91139 | 30.93383 | 23607 ft | 399 kts | 28° |
| 2026-05-04 08:00 | 37.93610 | 30.94961 | 23918 ft | 397 kts | 19° |
| 2026-05-04 08:00 | 37.96289 | 30.95966 | 24268 ft | 397 kts | 9° |
| 2026-05-04 08:02 | 38.15786 | 30.98239 | 26380 ft | 406 kts | 5° |
| 2026-05-04 08:02 | 38.18631 | 30.98554 | 26660 ft | 408 kts | 5° |
| 2026-05-04 08:02 | 38.21468 | 30.98867 | 26927 ft | 410 kts | 5° |
| 2026-05-04 08:03 | 38.24311 | 30.99182 | 27200 ft | 411 kts | 5° |
| 2026-05-04 08:03 | 38.27173 | 30.99502 | 27458 ft | 413 kts | 5° |
| 2026-05-04 08:03 | 38.30042 | 30.99826 | 27709 ft | 414 kts | 6° |
| 2026-05-04 08:03 | 38.32917 | 31.00153 | 27979 ft | 416 kts | 6° |
| 2026-05-04 08:04 | 38.35796 | 31.00481 | 28239 ft | 417 kts | 6° |
| 2026-05-04 08:04 | 38.38694 | 31.00808 | 28486 ft | 419 kts | 6° |
| 2026-05-04 08:04 | 38.41628 | 31.01133 | 28733 ft | 420 kts | 6° |
| 2026-05-04 08:04 | 38.44562 | 31.01453 | 28961 ft | 422 kts | 4° |
| 2026-05-04 08:05 | 38.47499 | 31.01398 | 29268 ft | 423 kts | 355° |
| 2026-05-04 08:05 | 38.50394 | 31.00721 | 29633 ft | 425 kts | 347° |
| 2026-05-04 08:05 | 38.53188 | 30.99478 | 29971 ft | 426 kts | 342° |
| 2026-05-04 08:05 | 38.55956 | 30.98136 | 30238 ft | 426 kts | 342° |
| 2026-05-04 08:06 | 38.58732 | 30.96801 | 30495 ft | 426 kts | 342° |
| 2026-05-04 08:06 | 38.60604 | 30.95902 | 30676 ft | 426 kts | 342° |
| 2026-05-04 08:06 | 38.63377 | 30.94571 | 30888 ft | 426 kts | 341° |
| 2026-05-04 08:06 | 38.66185 | 30.93225 | 31123 ft | 426 kts | 341° |
| 2026-05-04 08:08 | 38.85728 | 30.83818 | 32711 ft | 429 kts | 341° |
| 2026-05-04 08:08 | 38.88515 | 30.82465 | 32938 ft | 429 kts | 340° |
| 2026-05-04 08:10 | 39.10997 | 30.71528 | 33922 ft | 430 kts | 340° |
| 2026-05-04 08:11 | 39.13793 | 30.70159 | 33927 ft | 429 kts | 340° |
| 2026-05-04 08:11 | 39.22184 | 30.66069 | 33925 ft | 431 kts | 340° |
| 2026-05-04 08:12 | 39.27789 | 30.63325 | 33932 ft | 431 kts | 340° |
| 2026-05-04 08:12 | 39.33426 | 30.60563 | 33938 ft | 430 kts | 340° |
| 2026-05-04 08:13 | 39.39021 | 30.57804 | 33936 ft | 430 kts | 341° |
| 2026-05-04 08:13 | 39.44664 | 30.55026 | 33934 ft | 431 kts | 341° |
| 2026-05-04 08:14 | 39.50275 | 30.52267 | 33934 ft | 432 kts | 341° |
| 2026-05-04 08:16 | 39.72402 | 30.39754 | 33910 ft | 436 kts | 338° |
| 2026-05-04 08:16 | 39.77987 | 30.36500 | 33920 ft | 437 kts | 338° |
| 2026-05-04 08:17 | 39.83569 | 30.33260 | 33930 ft | 437 kts | 338° |
| 2026-05-04 08:17 | 39.89169 | 30.29986 | 33929 ft | 439 kts | 338° |
| 2026-05-04 08:19 | 40.11538 | 30.16800 | 33976 ft | 442 kts | 338° |
| 2026-05-04 08:20 | 40.17091 | 30.13514 | 33984 ft | 443 kts | 338° |
| 2026-05-04 08:20 | 40.22713 | 30.10183 | 33972 ft | 443 kts | 339° |
| 2026-05-04 08:21 | 40.28406 | 30.06802 | 33988 ft | 443 kts | 339° |
| 2026-05-04 08:21 | 40.34026 | 30.03467 | 33999 ft | 444 kts | 339° |
| 2026-05-04 08:22 | 40.39641 | 30.00121 | 34005 ft | 442 kts | 339° |
| 2026-05-04 08:24 | 40.62075 | 29.86689 | 33989 ft | 444 kts | 339° |
| 2026-05-04 08:24 | 40.67698 | 29.83310 | 33994 ft | 444 kts | 339° |
| 2026-05-04 08:25 | 40.73325 | 29.79929 | 33979 ft | 445 kts | 340° |
| 2026-05-04 08:25 | 40.78951 | 29.76533 | 33988 ft | 445 kts | 339° |
| 2026-05-04 08:27 | 41.00562 | 29.63414 | 33995 ft | 445 kts | 340° |
| 2026-05-04 08:28 | 41.06191 | 29.59984 | 34004 ft | 446 kts | 340° |
| 2026-05-04 08:28 | 41.11827 | 29.56548 | 33991 ft | 446 kts | 340° |
| 2026-05-04 08:29 | 41.17464 | 29.53111 | 33993 ft | 445 kts | 340° |
| 2026-05-04 08:31 | 41.40901 | 29.43656 | 33991 ft | 441 kts | 349° |
| 2026-05-04 08:33 | 41.64489 | 29.34626 | 33995 ft | 440 kts | 350° |
| 2026-05-04 08:35 | 41.88003 | 29.25570 | 33998 ft | 440 kts | 350° |
| 2026-05-04 08:35 | 41.93885 | 29.23300 | 34013 ft | 440 kts | 350° |
| 2026-05-04 08:37 | 42.14473 | 29.15179 | 33999 ft | 446 kts | 344° |